sensor_id;sensor_type;location;lat;lon;timestamp;P1;durP1;ratioP1;P2;durP2;ratioP2
71838;SDS011;59687;37.520;15.068;2022-10-16T00:00:45;14.50;;;8.55;;
71838;SDS011;59687;37.520;15.068;2022-10-16T00:03:12;13.63;;;8.40;;
71838;SDS011;59687;37.520;15.068;2022-10-16T00:05:43;19.70;;;8.80;;
71838;SDS011;59687;37.520;15.068;2022-10-16T00:08:11;13.90;;;8.27;;
71838;SDS011;59687;37.520;15.068;2022-10-16T00:10:40;14.43;;;8.27;;
71838;SDS011;59687;37.520;15.068;2022-10-16T00:13:07;11.98;;;7.63;;
71838;SDS011;59687;37.520;15.068;2022-10-16T00:15:35;14.33;;;8.00;;
71838;SDS011;59687;37.520;15.068;2022-10-16T00:18:03;12.73;;;8.05;;
71838;SDS011;59687;37.520;15.068;2022-10-16T00:20:33;13.63;;;8.35;;
71838;SDS011;59687;37.520;15.068;2022-10-16T00:23:00;13.90;;;7.80;;
71838;SDS011;59687;37.520;15.068;2022-10-16T00:25:27;15.32;;;7.70;;
71838;SDS011;59687;37.520;15.068;2022-10-16T00:27:54;14.67;;;7.97;;
71838;SDS011;59687;37.520;15.068;2022-10-16T00:30:21;16.63;;;8.45;;
71838;SDS011;59687;37.520;15.068;2022-10-16T00:32:49;14.73;;;8.13;;
71838;SDS011;59687;37.520;15.068;2022-10-16T00:35:16;14.00;;;7.55;;
71838;SDS011;59687;37.520;15.068;2022-10-16T00:37:43;11.98;;;7.68;;
71838;SDS011;59687;37.520;15.068;2022-10-16T00:40:10;13.83;;;8.33;;
71838;SDS011;59687;37.520;15.068;2022-10-16T00:42:38;12.18;;;8.02;;
71838;SDS011;59687;37.520;15.068;2022-10-16T00:45:05;12.50;;;7.82;;
71838;SDS011;59687;37.520;15.068;2022-10-16T00:47:40;14.30;;;8.40;;
71838;SDS011;59687;37.520;15.068;2022-10-16T00:53:00;14.83;;;8.27;;
71838;SDS011;59687;37.520;15.068;2022-10-16T00:55:28;14.10;;;7.95;;
71838;SDS011;59687;37.520;15.068;2022-10-16T00:57:56;12.88;;;8.25;;
71838;SDS011;59687;37.520;15.068;2022-10-16T01:00:25;14.65;;;8.50;;
71838;SDS011;59687;37.520;15.068;2022-10-16T01:02:59;15.65;;;8.35;;
71838;SDS011;59687;37.520;15.068;2022-10-16T01:05:30;14.83;;;7.83;;
71838;SDS011;59687;37.520;15.068;2022-10-16T01:08:08;15.02;;;8.57;;
71838;SDS011;59687;37.520;15.068;2022-10-16T01:13:21;14.23;;;8.52;;
71838;SDS011;59687;37.520;15.068;2022-10-16T01:16:41;15.73;;;8.73;;
71838;SDS011;59687;37.520;15.068;2022-10-16T01:22:09;14.35;;;8.15;;
71838;SDS011;59687;37.520;15.068;2022-10-16T01:24:55;15.50;;;9.02;;
71838;SDS011;59687;37.520;15.068;2022-10-16T01:27:26;16.25;;;7.65;;
71838;SDS011;59687;37.520;15.068;2022-10-16T01:30:13;15.10;;;8.05;;
71838;SDS011;59687;37.520;15.068;2022-10-16T01:32:58;14.23;;;7.97;;
71838;SDS011;59687;37.520;15.068;2022-10-16T01:35:36;13.35;;;8.40;;
71838;SDS011;59687;37.520;15.068;2022-10-16T01:38:31;14.80;;;7.60;;
71838;SDS011;59687;37.520;15.068;2022-10-16T01:41:09;13.82;;;7.60;;
71838;SDS011;59687;37.520;15.068;2022-10-16T01:43:49;16.13;;;7.75;;
71838;SDS011;59687;37.520;15.068;2022-10-16T01:46:22;13.87;;;7.77;;
71838;SDS011;59687;37.520;15.068;2022-10-16T01:48:50;14.60;;;7.90;;
71838;SDS011;59687;37.520;15.068;2022-10-16T01:51:18;13.02;;;7.30;;
71838;SDS011;59687;37.520;15.068;2022-10-16T01:53:49;12.63;;;7.55;;
71838;SDS011;59687;37.520;15.068;2022-10-16T01:56:19;12.65;;;7.38;;
71838;SDS011;59687;37.520;15.068;2022-10-16T01:58:53;14.30;;;7.87;;
71838;SDS011;59687;37.520;15.068;2022-10-16T02:01:43;13.65;;;8.38;;
71838;SDS011;59687;37.520;15.068;2022-10-16T02:04:18;15.23;;;7.47;;
71838;SDS011;59687;37.520;15.068;2022-10-16T02:06:50;12.25;;;7.03;;
71838;SDS011;59687;37.520;15.068;2022-10-16T02:09:19;12.65;;;7.45;;
71838;SDS011;59687;37.520;15.068;2022-10-16T02:11:46;12.00;;;7.07;;
71838;SDS011;59687;37.520;15.068;2022-10-16T02:14:16;11.63;;;7.72;;
71838;SDS011;59687;37.520;15.068;2022-10-16T02:16:44;13.05;;;7.50;;
71838;SDS011;59687;37.520;15.068;2022-10-16T02:19:14;12.65;;;7.47;;
71838;SDS011;59687;37.520;15.068;2022-10-16T02:21:53;13.75;;;7.70;;
71838;SDS011;59687;37.520;15.068;2022-10-16T02:24:46;12.60;;;6.93;;
71838;SDS011;59687;37.520;15.068;2022-10-16T02:27:39;13.82;;;7.25;;
71838;SDS011;59687;37.520;15.068;2022-10-16T02:31:01;13.48;;;7.10;;
71838;SDS011;59687;37.520;15.068;2022-10-16T02:33:09;13.27;;;8.35;;
71838;SDS011;59687;37.520;15.068;2022-10-16T02:35:38;13.70;;;7.38;;
71838;SDS011;59687;37.520;15.068;2022-10-16T02:38:06;14.27;;;7.70;;
71838;SDS011;59687;37.520;15.068;2022-10-16T02:40:40;12.30;;;7.65;;
71838;SDS011;59687;37.520;15.068;2022-10-16T02:43:10;15.20;;;8.35;;
71838;SDS011;59687;37.520;15.068;2022-10-16T02:45:37;12.85;;;7.95;;
71838;SDS011;59687;37.520;15.068;2022-10-16T02:48:05;15.73;;;7.80;;
71838;SDS011;59687;37.520;15.068;2022-10-16T02:50:33;13.07;;;7.70;;
71838;SDS011;59687;37.520;15.068;2022-10-16T02:53:01;12.93;;;8.30;;
71838;SDS011;59687;37.520;15.068;2022-10-16T02:55:28;16.77;;;11.82;;
71838;SDS011;59687;37.520;15.068;2022-10-16T02:57:55;16.40;;;10.25;;
71838;SDS011;59687;37.520;15.068;2022-10-16T03:00:24;15.15;;;10.07;;
71838;SDS011;59687;37.520;15.068;2022-10-16T03:02:51;15.77;;;9.47;;
71838;SDS011;59687;37.520;15.068;2022-10-16T03:05:19;13.30;;;8.65;;
71838;SDS011;59687;37.520;15.068;2022-10-16T03:07:51;14.18;;;9.07;;
71838;SDS011;59687;37.520;15.068;2022-10-16T03:10:19;16.60;;;9.20;;
71838;SDS011;59687;37.520;15.068;2022-10-16T03:12:47;15.90;;;8.68;;
71838;SDS011;59687;37.520;15.068;2022-10-16T03:15:15;13.40;;;8.33;;
71838;SDS011;59687;37.520;15.068;2022-10-16T03:17:42;12.93;;;8.32;;
71838;SDS011;59687;37.520;15.068;2022-10-16T03:20:11;16.40;;;8.32;;
71838;SDS011;59687;37.520;15.068;2022-10-16T03:22:38;13.48;;;8.07;;
71838;SDS011;59687;37.520;15.068;2022-10-16T03:25:05;14.02;;;8.40;;
71838;SDS011;59687;37.520;15.068;2022-10-16T03:27:33;14.60;;;9.10;;
71838;SDS011;59687;37.520;15.068;2022-10-16T03:30:03;16.40;;;9.00;;
71838;SDS011;59687;37.520;15.068;2022-10-16T03:32:30;15.07;;;9.35;;
71838;SDS011;59687;37.520;15.068;2022-10-16T03:34:59;15.07;;;9.30;;
71838;SDS011;59687;37.520;15.068;2022-10-16T03:37:27;15.02;;;8.93;;
71838;SDS011;59687;37.520;15.068;2022-10-16T03:39:55;16.63;;;9.20;;
71838;SDS011;59687;37.520;15.068;2022-10-16T03:42:23;14.77;;;9.30;;
71838;SDS011;59687;37.520;15.068;2022-10-16T03:44:50;17.00;;;10.20;;
71838;SDS011;59687;37.520;15.068;2022-10-16T03:47:17;16.52;;;9.30;;
71838;SDS011;59687;37.520;15.068;2022-10-16T03:49:48;17.00;;;9.32;;
71838;SDS011;59687;37.520;15.068;2022-10-16T03:52:16;16.80;;;10.20;;
71838;SDS011;59687;37.520;15.068;2022-10-16T03:54:50;17.92;;;9.85;;
71838;SDS011;59687;37.520;15.068;2022-10-16T03:57:17;16.92;;;9.50;;
71838;SDS011;59687;37.520;15.068;2022-10-16T03:59:45;16.55;;;10.32;;
71838;SDS011;59687;37.520;15.068;2022-10-16T04:02:12;18.67;;;10.00;;
71838;SDS011;59687;37.520;15.068;2022-10-16T04:04:39;18.13;;;9.83;;
71838;SDS011;59687;37.520;15.068;2022-10-16T04:07:07;18.10;;;10.13;;
71838;SDS011;59687;37.520;15.068;2022-10-16T04:09:34;18.58;;;10.48;;
71838;SDS011;59687;37.520;15.068;2022-10-16T04:12:01;17.10;;;10.13;;
71838;SDS011;59687;37.520;15.068;2022-10-16T04:14:29;17.98;;;10.00;;
71838;SDS011;59687;37.520;15.068;2022-10-16T04:16:57;17.70;;;10.40;;
71838;SDS011;59687;37.520;15.068;2022-10-16T04:19:26;18.70;;;10.32;;
71838;SDS011;59687;37.520;15.068;2022-10-16T04:21:53;17.17;;;10.30;;
71838;SDS011;59687;37.520;15.068;2022-10-16T04:24:21;16.90;;;9.00;;
71838;SDS011;59687;37.520;15.068;2022-10-16T04:26:48;17.83;;;9.38;;
71838;SDS011;59687;37.520;15.068;2022-10-16T04:29:15;17.63;;;9.00;;
71838;SDS011;59687;37.520;15.068;2022-10-16T04:31:42;17.27;;;9.15;;
71838;SDS011;59687;37.520;15.068;2022-10-16T04:34:09;15.77;;;9.27;;
71838;SDS011;59687;37.520;15.068;2022-10-16T04:36:37;17.42;;;9.07;;
71838;SDS011;59687;37.520;15.068;2022-10-16T04:39:05;16.60;;;8.85;;
71838;SDS011;59687;37.520;15.068;2022-10-16T04:41:32;17.13;;;9.03;;
71838;SDS011;59687;37.520;15.068;2022-10-16T04:43:59;16.35;;;9.57;;
71838;SDS011;59687;37.520;15.068;2022-10-16T04:46:26;15.35;;;9.23;;
71838;SDS011;59687;37.520;15.068;2022-10-16T04:48:53;12.52;;;8.15;;
71838;SDS011;59687;37.520;15.068;2022-10-16T04:51:20;16.52;;;9.15;;
71838;SDS011;59687;37.520;15.068;2022-10-16T04:53:47;14.90;;;8.87;;
71838;SDS011;59687;37.520;15.068;2022-10-16T04:56:14;14.55;;;8.32;;
71838;SDS011;59687;37.520;15.068;2022-10-16T04:58:42;15.18;;;8.63;;
71838;SDS011;59687;37.520;15.068;2022-10-16T05:01:09;15.55;;;9.18;;
71838;SDS011;59687;37.520;15.068;2022-10-16T05:03:36;15.68;;;8.63;;
71838;SDS011;59687;37.520;15.068;2022-10-16T05:06:04;15.37;;;9.27;;
71838;SDS011;59687;37.520;15.068;2022-10-16T05:08:32;16.13;;;9.15;;
71838;SDS011;59687;37.520;15.068;2022-10-16T05:10:59;14.43;;;8.50;;
71838;SDS011;59687;37.520;15.068;2022-10-16T05:13:28;14.55;;;8.23;;
71838;SDS011;59687;37.520;15.068;2022-10-16T05:15:55;14.40;;;8.68;;
71838;SDS011;59687;37.520;15.068;2022-10-16T05:18:23;15.73;;;8.63;;
71838;SDS011;59687;37.520;15.068;2022-10-16T05:20:50;14.15;;;8.60;;
71838;SDS011;59687;37.520;15.068;2022-10-16T05:23:18;14.18;;;9.05;;
71838;SDS011;59687;37.520;15.068;2022-10-16T05:25:51;15.73;;;8.35;;
71838;SDS011;59687;37.520;15.068;2022-10-16T05:28:27;17.60;;;8.95;;
71838;SDS011;59687;37.520;15.068;2022-10-16T05:30:57;18.10;;;8.70;;
71838;SDS011;59687;37.520;15.068;2022-10-16T05:33:25;13.55;;;8.40;;
71838;SDS011;59687;37.520;15.068;2022-10-16T05:35:52;13.18;;;7.22;;
71838;SDS011;59687;37.520;15.068;2022-10-16T05:38:22;12.98;;;7.57;;
71838;SDS011;59687;37.520;15.068;2022-10-16T05:40:52;13.52;;;7.47;;
71838;SDS011;59687;37.520;15.068;2022-10-16T05:43:21;14.37;;;7.80;;
71838;SDS011;59687;37.520;15.068;2022-10-16T05:45:55;13.13;;;7.82;;
71838;SDS011;59687;37.520;15.068;2022-10-16T05:48:26;13.45;;;7.38;;
71838;SDS011;59687;37.520;15.068;2022-10-16T05:50:57;14.73;;;7.57;;
71838;SDS011;59687;37.520;15.068;2022-10-16T05:53:33;12.50;;;7.50;;
71838;SDS011;59687;37.520;15.068;2022-10-16T05:56:05;15.33;;;7.93;;
71838;SDS011;59687;37.520;15.068;2022-10-16T05:58:34;12.90;;;7.78;;
71838;SDS011;59687;37.520;15.068;2022-10-16T06:01:04;13.70;;;7.47;;
71838;SDS011;59687;37.520;15.068;2022-10-16T06:03:39;11.80;;;8.20;;
71838;SDS011;59687;37.520;15.068;2022-10-16T06:06:10;12.90;;;8.48;;
71838;SDS011;59687;37.520;15.068;2022-10-16T06:08:42;13.30;;;8.37;;
71838;SDS011;59687;37.520;15.068;2022-10-16T06:11:18;14.23;;;7.97;;
71838;SDS011;59687;37.520;15.068;2022-10-16T06:13:53;11.68;;;7.40;;
71838;SDS011;59687;37.520;15.068;2022-10-16T06:16:23;11.63;;;7.90;;
71838;SDS011;59687;37.520;15.068;2022-10-16T06:18:54;10.18;;;7.45;;
71838;SDS011;59687;37.520;15.068;2022-10-16T06:21:26;10.70;;;7.67;;
71838;SDS011;59687;37.520;15.068;2022-10-16T06:23:56;10.98;;;7.55;;
71838;SDS011;59687;37.520;15.068;2022-10-16T06:26:27;10.50;;;8.38;;
71838;SDS011;59687;37.520;15.068;2022-10-16T06:28:56;11.50;;;8.13;;
71838;SDS011;59687;37.520;15.068;2022-10-16T06:31:24;13.73;;;8.23;;
71838;SDS011;59687;37.520;15.068;2022-10-16T06:33:55;12.93;;;8.03;;
71838;SDS011;59687;37.520;15.068;2022-10-16T06:36:25;10.85;;;7.38;;
71838;SDS011;59687;37.520;15.068;2022-10-16T06:38:55;11.32;;;7.45;;
71838;SDS011;59687;37.520;15.068;2022-10-16T06:41:22;12.40;;;7.95;;
71838;SDS011;59687;37.520;15.068;2022-10-16T06:43:51;11.75;;;6.68;;
71838;SDS011;59687;37.520;15.068;2022-10-16T06:46:20;9.03;;;6.33;;
71838;SDS011;59687;37.520;15.068;2022-10-16T06:48:49;10.68;;;6.43;;
71838;SDS011;59687;37.520;15.068;2022-10-16T06:51:18;10.02;;;6.68;;
71838;SDS011;59687;37.520;15.068;2022-10-16T06:53:47;10.00;;;6.88;;
71838;SDS011;59687;37.520;15.068;2022-10-16T06:56:32;8.88;;;6.18;;
71838;SDS011;59687;37.520;15.068;2022-10-16T06:59:00;12.17;;;8.43;;
71838;SDS011;59687;37.520;15.068;2022-10-16T07:01:30;13.25;;;8.10;;
71838;SDS011;59687;37.520;15.068;2022-10-16T07:03:59;9.93;;;7.05;;
71838;SDS011;59687;37.520;15.068;2022-10-16T07:06:30;10.10;;;7.13;;
71838;SDS011;59687;37.520;15.068;2022-10-16T07:09:00;10.63;;;6.60;;
71838;SDS011;59687;37.520;15.068;2022-10-16T07:11:34;10.53;;;6.43;;
71838;SDS011;59687;37.520;15.068;2022-10-16T07:14:03;9.98;;;5.80;;
71838;SDS011;59687;37.520;15.068;2022-10-16T07:16:31;7.80;;;5.50;;
71838;SDS011;59687;37.520;15.068;2022-10-16T07:19:00;12.70;;;6.65;;
71838;SDS011;59687;37.520;15.068;2022-10-16T07:21:30;12.23;;;7.50;;
71838;SDS011;59687;37.520;15.068;2022-10-16T07:24:02;11.33;;;7.90;;
71838;SDS011;59687;37.520;15.068;2022-10-16T07:26:34;10.43;;;6.85;;
71838;SDS011;59687;37.520;15.068;2022-10-16T07:29:02;11.38;;;6.65;;
71838;SDS011;59687;37.520;15.068;2022-10-16T07:31:29;10.10;;;7.10;;
71838;SDS011;59687;37.520;15.068;2022-10-16T07:33:57;10.07;;;7.32;;
71838;SDS011;59687;37.520;15.068;2022-10-16T07:36:25;11.90;;;8.10;;
71838;SDS011;59687;37.520;15.068;2022-10-16T07:38:55;12.82;;;8.82;;
71838;SDS011;59687;37.520;15.068;2022-10-16T07:41:24;15.27;;;10.80;;
71838;SDS011;59687;37.520;15.068;2022-10-16T07:43:55;12.82;;;9.07;;
71838;SDS011;59687;37.520;15.068;2022-10-16T07:46:27;13.63;;;8.18;;
71838;SDS011;59687;37.520;15.068;2022-10-16T07:48:56;12.73;;;7.30;;
71838;SDS011;59687;37.520;15.068;2022-10-16T07:51:24;10.25;;;6.88;;
71838;SDS011;59687;37.520;15.068;2022-10-16T07:53:53;12.48;;;6.70;;
71838;SDS011;59687;37.520;15.068;2022-10-16T07:56:21;11.70;;;6.80;;
71838;SDS011;59687;37.520;15.068;2022-10-16T07:58:49;9.90;;;6.80;;
71838;SDS011;59687;37.520;15.068;2022-10-16T08:01:17;11.40;;;6.60;;
71838;SDS011;59687;37.520;15.068;2022-10-16T08:03:47;12.23;;;7.60;;
71838;SDS011;59687;37.520;15.068;2022-10-16T08:06:15;10.52;;;7.43;;
71838;SDS011;59687;37.520;15.068;2022-10-16T08:08:44;10.82;;;7.50;;
71838;SDS011;59687;37.520;15.068;2022-10-16T08:11:11;11.65;;;7.40;;
71838;SDS011;59687;37.520;15.068;2022-10-16T08:13:39;9.83;;;6.60;;
71838;SDS011;59687;37.520;15.068;2022-10-16T08:16:07;11.77;;;7.07;;
71838;SDS011;59687;37.520;15.068;2022-10-16T08:18:41;14.60;;;8.02;;
71838;SDS011;59687;37.520;15.068;2022-10-16T08:21:13;13.48;;;7.03;;
71838;SDS011;59687;37.520;15.068;2022-10-16T08:23:44;11.25;;;7.00;;
71838;SDS011;59687;37.520;15.068;2022-10-16T08:26:11;10.83;;;7.33;;
71838;SDS011;59687;37.520;15.068;2022-10-16T08:28:39;8.82;;;6.53;;
71838;SDS011;59687;37.520;15.068;2022-10-16T08:31:09;10.35;;;6.68;;
71838;SDS011;59687;37.520;15.068;2022-10-16T08:33:40;10.73;;;6.40;;
71838;SDS011;59687;37.520;15.068;2022-10-16T08:36:09;10.82;;;6.68;;
71838;SDS011;59687;37.520;15.068;2022-10-16T08:38:37;9.47;;;6.53;;
71838;SDS011;59687;37.520;15.068;2022-10-16T08:50:08;9.23;;;4.93;;
71838;SDS011;59687;37.520;15.068;2022-10-16T08:52:38;7.43;;;4.33;;
71838;SDS011;59687;37.520;15.068;2022-10-16T08:55:28;9.38;;;4.97;;
71838;SDS011;59687;37.520;15.068;2022-10-16T08:58:00;8.75;;;5.07;;
71838;SDS011;59687;37.520;15.068;2022-10-16T09:00:28;8.93;;;5.32;;
71838;SDS011;59687;37.520;15.068;2022-10-16T09:09:06;10.32;;;4.80;;
71838;SDS011;59687;37.520;15.068;2022-10-16T09:11:58;8.75;;;4.78;;
71838;SDS011;59687;37.520;15.068;2022-10-16T09:19:57;7.20;;;4.77;;
71838;SDS011;59687;37.520;15.068;2022-10-16T09:22:29;8.68;;;5.20;;
71838;SDS011;59687;37.520;15.068;2022-10-16T09:25:09;12.90;;;8.63;;
71838;SDS011;59687;37.520;15.068;2022-10-16T09:27:42;9.95;;;5.60;;
71838;SDS011;59687;37.520;15.068;2022-10-16T09:30:13;12.00;;;6.95;;
71838;SDS011;59687;37.520;15.068;2022-10-16T09:32:43;8.37;;;5.00;;
71838;SDS011;59687;37.520;15.068;2022-10-16T09:35:16;8.63;;;4.82;;
71838;SDS011;59687;37.520;15.068;2022-10-16T09:37:48;8.40;;;5.03;;
71838;SDS011;59687;37.520;15.068;2022-10-16T09:40:24;10.05;;;5.50;;
71838;SDS011;59687;37.520;15.068;2022-10-16T09:43:02;7.13;;;4.78;;
71838;SDS011;59687;37.520;15.068;2022-10-16T09:48:26;8.38;;;4.90;;
71838;SDS011;59687;37.520;15.068;2022-10-16T09:51:13;7.93;;;4.95;;
71838;SDS011;59687;37.520;15.068;2022-10-16T09:54:00;8.88;;;4.70;;
71838;SDS011;59687;37.520;15.068;2022-10-16T09:56:41;10.88;;;5.28;;
71838;SDS011;59687;37.520;15.068;2022-10-16T09:59:19;7.60;;;4.63;;
71838;SDS011;59687;37.520;15.068;2022-10-16T10:01:49;7.88;;;4.47;;
71838;SDS011;59687;37.520;15.068;2022-10-16T10:04:22;7.15;;;4.60;;
71838;SDS011;59687;37.520;15.068;2022-10-16T10:06:51;8.80;;;4.40;;
71838;SDS011;59687;37.520;15.068;2022-10-16T10:11:59;7.43;;;5.10;;
71838;SDS011;59687;37.520;15.068;2022-10-16T10:14:35;7.55;;;4.60;;
71838;SDS011;59687;37.520;15.068;2022-10-16T10:19:40;9.35;;;5.53;;
71838;SDS011;59687;37.520;15.068;2022-10-16T10:39:19;7.87;;;5.10;;
71838;SDS011;59687;37.520;15.068;2022-10-16T10:44:57;7.40;;;5.15;;
71838;SDS011;59687;37.520;15.068;2022-10-16T10:47:52;9.73;;;5.32;;
71838;SDS011;59687;37.520;15.068;2022-10-16T10:50:33;7.65;;;4.68;;
71838;SDS011;59687;37.520;15.068;2022-10-16T10:56:06;7.20;;;4.70;;
71838;SDS011;59687;37.520;15.068;2022-10-16T11:01:10;7.90;;;4.50;;
71838;SDS011;59687;37.520;15.068;2022-10-16T11:06:50;7.60;;;4.80;;
71838;SDS011;59687;37.520;15.068;2022-10-16T11:09:24;8.77;;;4.82;;
71838;SDS011;59687;37.520;15.068;2022-10-16T11:12:17;7.65;;;5.10;;
71838;SDS011;59687;37.520;15.068;2022-10-16T11:14:54;6.68;;;4.45;;
71838;SDS011;59687;37.520;15.068;2022-10-16T11:20:46;7.00;;;4.87;;
71838;SDS011;59687;37.520;15.068;2022-10-16T11:23:21;7.57;;;4.70;;
71838;SDS011;59687;37.520;15.068;2022-10-16T11:25:53;7.82;;;4.88;;
71838;SDS011;59687;37.520;15.068;2022-10-16T11:33:45;7.57;;;4.60;;
71838;SDS011;59687;37.520;15.068;2022-10-16T11:39:27;7.90;;;4.57;;
71838;SDS011;59687;37.520;15.068;2022-10-16T11:44:44;8.45;;;5.22;;
71838;SDS011;59687;37.520;15.068;2022-10-16T11:47:26;8.10;;;4.70;;
71838;SDS011;59687;37.520;15.068;2022-10-16T11:53:01;7.72;;;4.15;;
71838;SDS011;59687;37.520;15.068;2022-10-16T11:55:48;8.43;;;4.53;;
71838;SDS011;59687;37.520;15.068;2022-10-16T12:03:34;9.43;;;5.03;;
71838;SDS011;59687;37.520;15.068;2022-10-16T12:09:00;9.10;;;4.97;;
71838;SDS011;59687;37.520;15.068;2022-10-16T12:14:05;7.70;;;4.57;;
71838;SDS011;59687;37.520;15.068;2022-10-16T12:16:55;7.32;;;3.97;;
71838;SDS011;59687;37.520;15.068;2022-10-16T12:19:56;7.28;;;4.40;;
71838;SDS011;59687;37.520;15.068;2022-10-16T12:22:24;7.32;;;4.38;;
71838;SDS011;59687;37.520;15.068;2022-10-16T12:24:56;7.65;;;4.53;;
71838;SDS011;59687;37.520;15.068;2022-10-16T12:27:27;8.53;;;4.67;;
71838;SDS011;59687;37.520;15.068;2022-10-16T12:29:58;9.13;;;4.72;;
71838;SDS011;59687;37.520;15.068;2022-10-16T12:32:31;7.22;;;4.97;;
71838;SDS011;59687;37.520;15.068;2022-10-16T12:35:26;7.43;;;4.85;;
71838;SDS011;59687;37.520;15.068;2022-10-16T12:38:06;6.53;;;4.70;;
71838;SDS011;59687;37.520;15.068;2022-10-16T12:41:02;6.73;;;4.27;;
71838;SDS011;59687;37.520;15.068;2022-10-16T12:48:37;6.97;;;4.18;;
71838;SDS011;59687;37.520;15.068;2022-10-16T12:51:24;6.38;;;4.15;;
71838;SDS011;59687;37.520;15.068;2022-10-16T12:54:10;8.53;;;4.50;;
71838;SDS011;59687;37.520;15.068;2022-10-16T13:28:48;7.32;;;5.10;;
71838;SDS011;59687;37.520;15.068;2022-10-16T13:31:18;8.20;;;5.25;;
71838;SDS011;59687;37.520;15.068;2022-10-16T13:33:52;10.75;;;5.13;;
71838;SDS011;59687;37.520;15.068;2022-10-16T13:45:01;9.25;;;5.00;;
71838;SDS011;59687;37.520;15.068;2022-10-16T13:47:29;8.43;;;5.28;;
71838;SDS011;59687;37.520;15.068;2022-10-16T13:50:01;9.13;;;5.23;;
71838;SDS011;59687;37.520;15.068;2022-10-16T13:52:31;7.68;;;4.80;;
71838;SDS011;59687;37.520;15.068;2022-10-16T13:54:58;8.63;;;5.38;;
71838;SDS011;59687;37.520;15.068;2022-10-16T13:57:26;8.13;;;5.20;;
71838;SDS011;59687;37.520;15.068;2022-10-16T13:59:53;8.60;;;5.65;;
71838;SDS011;59687;37.520;15.068;2022-10-16T14:04:52;7.97;;;5.60;;
71838;SDS011;59687;37.520;15.068;2022-10-16T14:07:31;8.85;;;5.68;;
71838;SDS011;59687;37.520;15.068;2022-10-16T14:10:01;8.82;;;5.78;;
71838;SDS011;59687;37.520;15.068;2022-10-16T14:12:31;9.38;;;5.88;;
71838;SDS011;59687;37.520;15.068;2022-10-16T14:14:59;8.87;;;5.83;;
71838;SDS011;59687;37.520;15.068;2022-10-16T14:17:27;8.20;;;5.50;;
71838;SDS011;59687;37.520;15.068;2022-10-16T14:19:58;9.13;;;5.75;;
71838;SDS011;59687;37.520;15.068;2022-10-16T14:22:35;9.73;;;6.00;;
71838;SDS011;59687;37.520;15.068;2022-10-16T14:25:26;10.00;;;5.70;;
71838;SDS011;59687;37.520;15.068;2022-10-16T14:30:30;9.40;;;6.05;;
71838;SDS011;59687;37.520;15.068;2022-10-16T14:33:19;8.70;;;6.00;;
71838;SDS011;59687;37.520;15.068;2022-10-16T14:38:41;8.43;;;5.43;;
71838;SDS011;59687;37.520;15.068;2022-10-16T14:41:15;8.93;;;5.90;;
71838;SDS011;59687;37.520;15.068;2022-10-16T14:43:51;8.05;;;5.30;;
71838;SDS011;59687;37.520;15.068;2022-10-16T14:46:28;11.48;;;5.68;;
71838;SDS011;59687;37.520;15.068;2022-10-16T14:51:37;8.05;;;5.85;;
71838;SDS011;59687;37.520;15.068;2022-10-16T14:54:08;9.00;;;5.27;;
71838;SDS011;59687;37.520;15.068;2022-10-16T14:56:46;8.98;;;5.47;;
71838;SDS011;59687;37.520;15.068;2022-10-16T14:59:19;8.95;;;5.60;;
71838;SDS011;59687;37.520;15.068;2022-10-16T15:01:54;10.57;;;6.45;;
71838;SDS011;59687;37.520;15.068;2022-10-16T15:04:21;10.77;;;5.78;;
71838;SDS011;59687;37.520;15.068;2022-10-16T15:06:49;11.70;;;6.63;;
71838;SDS011;59687;37.520;15.068;2022-10-16T15:09:16;9.88;;;6.18;;
71838;SDS011;59687;37.520;15.068;2022-10-16T15:11:43;9.73;;;6.10;;
71838;SDS011;59687;37.520;15.068;2022-10-16T15:14:13;14.50;;;7.20;;
71838;SDS011;59687;37.520;15.068;2022-10-16T15:16:45;12.85;;;7.28;;
71838;SDS011;59687;37.520;15.068;2022-10-16T15:19:12;10.70;;;7.40;;
71838;SDS011;59687;37.520;15.068;2022-10-16T15:21:40;10.38;;;6.07;;
71838;SDS011;59687;37.520;15.068;2022-10-16T15:24:09;11.93;;;6.75;;
71838;SDS011;59687;37.520;15.068;2022-10-16T15:26:39;10.85;;;7.68;;
71838;SDS011;59687;37.520;15.068;2022-10-16T15:29:07;11.23;;;6.90;;
71838;SDS011;59687;37.520;15.068;2022-10-16T15:31:34;10.33;;;7.10;;
71838;SDS011;59687;37.520;15.068;2022-10-16T15:34:02;11.15;;;7.13;;
71838;SDS011;59687;37.520;15.068;2022-10-16T15:36:33;11.32;;;7.32;;
71838;SDS011;59687;37.520;15.068;2022-10-16T15:39:03;13.65;;;7.63;;
71838;SDS011;59687;37.520;15.068;2022-10-16T15:41:31;10.18;;;6.90;;
71838;SDS011;59687;37.520;15.068;2022-10-16T15:43:58;10.97;;;7.00;;
71838;SDS011;59687;37.520;15.068;2022-10-16T15:46:26;10.70;;;6.18;;
71838;SDS011;59687;37.520;15.068;2022-10-16T15:48:56;10.90;;;7.10;;
71838;SDS011;59687;37.520;15.068;2022-10-16T15:51:25;11.73;;;7.35;;
71838;SDS011;59687;37.520;15.068;2022-10-16T15:53:56;11.45;;;7.00;;
71838;SDS011;59687;37.520;15.068;2022-10-16T15:56:24;10.93;;;6.97;;
71838;SDS011;59687;37.520;15.068;2022-10-16T15:58:55;10.60;;;6.95;;
71838;SDS011;59687;37.520;15.068;2022-10-16T16:01:23;12.43;;;7.05;;
71838;SDS011;59687;37.520;15.068;2022-10-16T16:03:53;11.25;;;7.20;;
71838;SDS011;59687;37.520;15.068;2022-10-16T16:06:21;13.98;;;7.72;;
71838;SDS011;59687;37.520;15.068;2022-10-16T16:08:51;11.90;;;7.27;;
71838;SDS011;59687;37.520;15.068;2022-10-16T16:11:20;11.23;;;7.40;;
71838;SDS011;59687;37.520;15.068;2022-10-16T16:13:49;11.48;;;7.55;;
71838;SDS011;59687;37.520;15.068;2022-10-16T16:16:16;12.57;;;7.45;;
71838;SDS011;59687;37.520;15.068;2022-10-16T16:18:46;12.27;;;7.88;;
71838;SDS011;59687;37.520;15.068;2022-10-16T16:21:17;15.43;;;9.00;;
71838;SDS011;59687;37.520;15.068;2022-10-16T16:23:44;12.32;;;7.75;;
71838;SDS011;59687;37.520;15.068;2022-10-16T16:26:12;11.93;;;8.00;;
71838;SDS011;59687;37.520;15.068;2022-10-16T16:29:00;14.95;;;7.88;;
71838;SDS011;59687;37.520;15.068;2022-10-16T16:31:28;13.90;;;8.98;;
71838;SDS011;59687;37.520;15.068;2022-10-16T16:33:56;11.87;;;7.80;;
71838;SDS011;59687;37.520;15.068;2022-10-16T16:36:25;13.38;;;9.02;;
71838;SDS011;59687;37.520;15.068;2022-10-16T16:38:53;14.15;;;8.65;;
71838;SDS011;59687;37.520;15.068;2022-10-16T16:41:22;15.85;;;9.63;;
71838;SDS011;59687;37.520;15.068;2022-10-16T16:43:54;12.90;;;8.45;;
71838;SDS011;59687;37.520;15.068;2022-10-16T16:46:27;15.87;;;9.33;;
71838;SDS011;59687;37.520;15.068;2022-10-16T16:48:54;17.77;;;10.50;;
71838;SDS011;59687;37.520;15.068;2022-10-16T16:51:21;16.40;;;10.20;;
71838;SDS011;59687;37.520;15.068;2022-10-16T16:53:49;13.98;;;10.15;;
71838;SDS011;59687;37.520;15.068;2022-10-16T16:56:18;19.80;;;10.30;;
71838;SDS011;59687;37.520;15.068;2022-10-16T16:58:47;15.13;;;10.23;;
71838;SDS011;59687;37.520;15.068;2022-10-16T17:01:15;17.58;;;11.55;;
71838;SDS011;59687;37.520;15.068;2022-10-16T17:03:45;15.10;;;10.70;;
71838;SDS011;59687;37.520;15.068;2022-10-16T17:06:15;16.45;;;10.90;;
71838;SDS011;59687;37.520;15.068;2022-10-16T17:08:43;17.60;;;11.23;;
71838;SDS011;59687;37.520;15.068;2022-10-16T17:11:12;16.77;;;10.90;;
71838;SDS011;59687;37.520;15.068;2022-10-16T17:13:41;17.63;;;10.85;;
71838;SDS011;59687;37.520;15.068;2022-10-16T17:16:08;17.98;;;11.15;;
71838;SDS011;59687;37.520;15.068;2022-10-16T17:18:36;17.38;;;10.93;;